• Join FlightAware (Why Join?)
  • Login
  • US Flag 
05:05AM EDT


 

Airport Tracker/Info


-or-


 

Live Flight TrackerFlight Track Log ✈ EJA829P ✈ 12-Nov-2013 ✈ KIAD - CYQA

Flight Track Log - Related Links

Times and Time Zones

All times are in EST time to prevent confusion due to time zone crossing. See the EJA829P flight status page for this flight to view local times or setup timezone preferences in your user account.

Time Position Orientation Groundspeed Altitude Reporting Facility
EST Latitude Longitude Course Direction KTS MPH feet Rate Location/Type
07:51AM 39.0000 -77.4500 346° North 213 245 3,000  Level Potomac TRACON
07:53AM 39.1092 -77.4856 346° North 239 275 6,500 2,520 Climbing Washington Center
07:54AM 39.1819 -77.4847 North 251 289 9,700 2,940 Climbing Washington Center
07:55AM 39.2656 -77.4814 North 280 322 12,500 2,940 Climbing Washington Center
07:56AM 39.3550 -77.4758 North 295 339 15,600 3,180 Climbing Washington Center
07:58AM 39.5586 -77.4631 North 370 426 22,300 2,400 Climbing New York Center
07:59AM 39.6653 -77.4569 North 370 426 23,000 300 Climbing New York Center
08:00AM 39.7717 -77.4564 360° North 375 432 23,000  Level New York Center
08:01AM 39.8742 -77.4525 North 370 426 23,000  Level New York Center
08:02AM 39.9703 -77.4508 North 359 413 23,000  Level New York Center
08:03AM 40.0703 -77.4497 360° North 359 413 23,000  Level New York Center
08:04AM 40.1656 -77.4614 355° North 354 407 23,000  Level New York Center
08:05AM 40.2617 -77.4953 345° North 348 400 23,000  Level New York Center
08:06AM 40.3556 -77.5289 345° North 348 400 23,000  Level New York Center
08:07AM 40.4497 -77.5625 345° North 353 406 23,000  Level New York Center
08:08AM 40.5417 -77.5964 344° North 353 406 23,000 -240 Level New York Center
08:09AM 40.6253 -77.6264 345° North 353 406 22,600 -540 Descending New York Center
08:10AM 40.7211 -77.6608 345° North 353 406 22,000 -360 Descending New York Center
08:11AM 40.8150 -77.6947 345° North 353 406 22,000  Level New York Center
08:12AM 40.9131 -77.7294 345° North 353 406 22,000  Level New York Center
08:14AM 41.1514 -77.8175 344° North 347 399 22,000  Level Cleveland Center
08:15AM 41.2414 -77.8497 345° North 341 392 22,000  Level Cleveland Center
08:16AM 41.3314 -77.8825 345° North 339 390 22,000  Level Cleveland Center
08:17AM 41.4217 -77.9167 344° North 340 391 22,000  Level Cleveland Center
08:19AM 41.5300 -77.9553 345° North 339 390 22,000  Level Cleveland Center
08:20AM 41.6194 -77.9894 344° North 338 389 22,000  Level Cleveland Center
08:21AM 41.7083 -78.0208 345° North 335 386 22,000  Level Cleveland Center
08:22AM 41.7992 -78.0558 344° North 338 389 22,000  Level Cleveland Center
08:23AM 41.8900 -78.0892 345° North 340 391 22,000  Level Cleveland Center
08:24AM 41.9903 -78.1269 344° North 340 391 22,000  Level Cleveland Center
08:25AM 42.0808 -78.1606 345° North 339 390 22,000  Level Cleveland Center
08:26AM 42.1717 -78.1947 344° North 338 389 22,000  Level Cleveland Center
08:27AM 42.2806 -78.2350 345° North 338 389 22,000  Level Cleveland Center
08:28AM 42.3717 -78.2703 344° North 339 390 22,000  Level Cleveland Center
08:29AM 42.4619 -78.3058 344° North 338 389 22,000  Level Cleveland Center
08:30AM 42.5533 -78.3394 345° North 338 389 22,000  Level Cleveland Center
08:31AM 42.6450 -78.3744 344° North 340 391 22,000  Level Cleveland Center
08:32AM 42.7364 -78.4106 344° North 342 394 22,000  Level Cleveland Center
08:34AM 42.9386 -78.4886 344° North 343 395 22,000  Level Cleveland Center
08:35AM 43.0294 -78.5228 345° North 341 392 22,000  Level Cleveland Center
08:36AM 43.1211 -78.5589 344° North 341 392 22,000  Level Cleveland Center
08:37AM 43.2100 -78.5939 344° North 335 386 22,000  Level Cleveland Center
08:38AM 43.2992 -78.6289 344° North 334 384 22,000  Level Cleveland Center
08:39AM 43.3903 -78.6633 345° North 338 389 22,000  Level Cleveland Center
08:40AM 43.4994 -78.7061 344° North 339 390 22,000  Level Cleveland Center
08:41AM 43.5667 -78.7167 354° North 340 391 22,000  Level Toronto Center
08:42AM 43.6667 -78.7500 346° North 330 380 22,000  Level Toronto Center
08:43AM 43.7500 -78.7833 344° North 340 391 22,000  Level Toronto Center
08:44AM 43.8333 -78.8167 344° North 330 380 22,000  Level Toronto Center
08:45AM 43.9333 -78.8667 340° North 330 380 22,000 -60 Level Toronto Center
08:46AM 44.0167 -78.8833 352° North 320 368 21,900 -1,320 Descending Toronto Center
08:47AM 44.1000 -78.9333 337° Northwest 320 368 19,400 -2,100 Descending Toronto Center
08:48AM 44.1667 -78.9667 340° North 310 357 17,700 -1,920 Descending Toronto Center
08:49AM 44.2500 -79.0000 344° North 300 345 15,600 -2,040 Descending Toronto Center
08:50AM 44.3333 -79.0500 337° Northwest 290 334 13,700 -1,860 Descending Toronto Center
08:51AM 44.4000 -79.0667 350° North 280 322 11,900 -1,800 Descending Toronto Center
08:52AM 44.4667 -79.1000 340° North 250 288 10,200 -1,680 Descending Toronto Center
08:53AM 44.5333 -79.1167 350° North 240 276 8,600 -1,680 Descending Toronto Center
08:54AM 44.6000 -79.1667 332° Northwest 240 276 6,900 -1,500 Descending Toronto Center
08:55AM 44.6500 -79.1833 347° North 210 242 5,600 -1,320 Descending Toronto Center
08:56AM 44.7000 -79.1833 360° North 180 207 4,300 -1,320 Descending Toronto Center
08:58AM 44.8191 -79.2341 347° North  Level FlightAware Approximate
09:05AM 44.9667 -79.3000 180° South  Level FlightAware Approximate
09:06AM 44.9747 -79.3033 180° South  Level Estimated
09:07AM 44.9747 -79.3033 180° South  Level Estimated
09:08AM 44.9747 -79.3033 180° South  Level Estimated
09:09AM 44.9747 -79.3033 180° South  Level Estimated